Latest Coastal Weather Observations for Hobart Airport

IDT60701

Issued at 5:23 pm EDT Friday 3 December 2021 (issued every 10 minutes, with the page automatically refreshed every 10 minutes)

About coastal observations | Map of coastal stations | Coastal observations for TAS | Marine services | Other Formats
Station Details ID: 094008 Name: HOBART AIRPORT Lat: -42.83 Lon: 147.50 Height: 4.0 m
Data from the previous 72 hours. | See also: Recent months at Hobart Airport
Date/Time
EDT
Wind Sea
Height
m
Swell Vis
km
Cloud Weather Temp
°C
Press
MSL
hPa
Rain since
9am
mm
Dir  Spd
kts
Gust
kts
Height
m
Period
s
Dir
03/05:00pm ENE 13 19 - - - - 10 Mostly clear - 16.3 1013.6 0.0
03/04:30pm E 9 14 - - - - 10 Mostly clear - 16.6 1013.8 0.0
03/04:00pm E 11 19 - - - - 10 Mostly clear - 16.5 1014.0 0.0
03/03:30pm ENE 11 18 - - - - 10 Mostly clear - 17.9 1014.3 0.0
03/03:00pm SSE 13 17 - - - - 30 Partly cloudy Haze 18.3 1014.6 0.0
03/02:30pm SE 8 11 - - - - 10 Mostly clear - 17.7 1015.0 0.0
03/02:00pm SE 7 11 - - - - 10 Mostly clear - 17.9 1015.2 0.0
03/01:30pm SSE 11 16 - - - - 10 Mostly clear - 17.1 1015.6 0.0
03/01:00pm SE 10 14 - - - - 10 Mostly clear - 17.3 1016.0 0.0
03/12:30pm SSE 10 14 - - - - 10 Partly cloudy - 16.7 1016.1 0.0
03/12:00pm ESE 7 9 - - - - 40 Partly cloudy Fine 16.7 1016.4 0.0
03/11:30am SE 7 11 - - - - 10 Partly cloudy - 16.7 1016.5 0.0
03/11:00am SSE 6 10 - - - - 10 Mostly clear - 16.5 1016.6 0.0
03/10:30am WNW 7 12 - - - - 10 Partly cloudy - 17.2 1016.6 0.0
03/10:00am NW 7 10 - - - - 10 Mostly clear - 16.1 1016.7 0.0
03/09:30am WSW 6 10 - - - - 10 Mostly clear - 15.7 1016.8 0.0
03/09:00am WSW 9 15 - - - - 40 Mostly clear Fine 15.6 1016.7 23.2
03/08:30am NW 6 9 - - - - 10 Mostly clear - 15.1 1016.4 23.2
03/08:00am NNW 5 6 - - - - 10 Mostly clear - 14.3 1016.2 23.2
03/07:30am WNW 5 6 - - - - 10 Mostly clear - 13.7 1015.9 23.2
03/07:00am SW 6 7 - - - - 10 Mostly clear - 13.2 1015.5 23.2
03/06:30am SSW 2 4 - - - - 10 Mostly clear - 12.4 1015.2 23.2
03/06:00am S 2 4 - - - - 40 Mostly clear Fine 9.9 1014.7 23.2
03/05:30am NW 3 7 - - - - 10 - - 11.0 1014.2 23.2
03/05:00am NW 8 10 - - - - 10 - - 12.0 1013.7 23.2
03/04:30am WNW 8 11 - - - - 10 - - 11.6 1013.4 23.2
03/04:00am NNW 4 9 - - - - 10 - - 12.4 1013.3 23.2
03/03:30am WNW 10 15 - - - - 10 - - 12.2 1013.1 23.2
03/03:00am W 6 8 - - - - 10 - - 12.1 1013.2 23.2
03/02:30am NW 5 7 - - - - 10 - - 12.7 1013.3 23.2
03/02:00am NNW 8 11 - - - - 10 Partly cloudy - 13.2 1013.1 23.2
03/01:30am NW 5 10 - - - - 10 Partly cloudy - 12.5 1013.4 23.2
03/01:00am N 2 4 - - - - 10 Partly cloudy - 13.4 1013.2 23.2
03/12:30am WSW 5 9 - - - - 10 Partly cloudy - 13.4 1013.2 23.2
03/12:00am WSW 2 4 - - - - 10 Mostly cloudy Rain 13.5 1013.0 23.2
 
Date/Time
EDT
Wind Sea
Height
m
Swell Vis
km
Cloud Weather Temp
°C
Press
MSL
hPa
Rain since
9am
mm
Dir  Spd
kts
Gust
kts
Height
m
Period
s
Dir
02/11:56pm SW 3 4 - - - - 10 Partly cloudy - 13.5 1013.0 23.2
02/11:30pm W 5 7 - - - - 9 Mostly clear Rain 13.4 1012.6 23.0
02/11:00pm SSE 8 10 - - - - 10 Partly cloudy - 13.5 1012.5 22.8
02/10:30pm SSE 9 10 - - - - 10 Mostly clear Rain 13.3 1012.2 22.8
02/10:00pm SSE 10 13 - - - - 10 Mostly clear - 13.4 1011.6 22.8
02/09:32pm SSE 13 17 - - - - 10 Mostly clear Rain 13.6 1011.0 22.8
02/09:30pm SSE 13 16 - - - - 10 Mostly clear Rain 13.6 1011.0 22.8
02/09:27pm SSE 12 16 - - - - 10 Mostly clear Rain 13.9 1010.8 22.8
02/09:00pm S 13 17 - - - - 12 Mostly cloudy Showers 13.7 1010.4 22.2
02/08:30pm S 15 22 - - - - 10 Mostly cloudy Thunder 13.6 1010.3 22.2
02/08:00pm SSE 14 20 - - - - 10 Partly cloudy - 14.3 1009.2 22.2
02/07:30pm S 10 13 - - - - 10 Mostly cloudy - 14.7 1009.3 22.2
02/07:04pm SSE 12 17 - - - - 10 Partly cloudy Showers 14.8 1009.1 21.8
02/07:00pm SSE 13 17 - - - - 10 Partly cloudy - 14.6 1009.4 21.8
02/06:30pm SSE 15 20 - - - - 9 Mostly clear Showers 14.9 1008.7 21.2
02/06:16pm S 15 20 - - - - 10 Mostly clear Showers 14.9 1009.3 21.2
02/06:05pm S 18 25 - - - - 10 Partly cloudy - 15.0 1008.6 20.8
02/06:00pm SSW 18 25 - - - - 10 Cloudy Thunderstorm 15.3 - 20.4
02/05:52pm SW 17 24 - - - - 10 Partly cloudy - 15.3 1009.4 20.2
02/05:42pm S 19 26 - - - - 10 Mostly clear Thunderstorm 15.5 1007.9 20.0
02/05:33pm S 18 23 - - - - 10 Mostly clear Thunderstorm 15.9 1007.3 20.0
02/05:30pm S 18 26 - - - - 10 Mostly clear Thunderstorm 15.9 1006.8 19.6
02/05:27pm S 18 26 - - - - 10 Mostly clear Thunderstorm 16.0 1006.8 19.6
02/05:00pm S 16 20 - - - - 10 Mostly clear - 17.1 1007.2 19.6
02/04:30pm SSE 16 21 - - - - 10 Mostly clear Showers 16.6 1007.7 19.6
02/04:28pm SSE 16 21 - - - - 10 Mostly clear Showers 16.9 1007.8 19.6
02/04:21pm SSE 16 20 - - - - 10 Mostly clear Showers 16.8 1007.5 19.6
02/04:12pm S 12 21 - - - - 10 Mostly clear Thunderstorm 17.0 1008.0 19.6
02/04:00pm SW 11 20 - - - - 8 Mostly clear - 15.9 1008.6 16.0
02/03:51pm SSW 17 21 - - - - 1 Mostly clear Hailstorm 18.2 1008.8 4.0
02/03:48pm S 16 21 - - - - 0.8 Mostly clear Hailstorm 19.1 1009.2 0.0
02/03:47pm S 16 21 - - - - 0.8 - - - - -
02/03:30pm SSE 15 18 - - - - 10 Mostly clear Thunderstorm 18.6 1007.1 0.0
02/03:27pm SSE 14 18 - - - - 10 Mostly clear Thunderstorm 18.9 1007.2 0.0
02/03:17pm SSW 14 17 - - - - 10 Mostly clear Thunder 19.3 1007.6 0.0
02/03:08pm S 13 17 - - - - 10 Mostly clear Thunderstorm 19.2 1008.5 0.0
02/03:00pm S 12 14 - - - - 14 Mostly cloudy Thunderstorm 19.9 1008.3 0.0
02/02:53pm S 11 14 - - - - 10 Mostly clear Thunderstorm 20.3 1008.1 0.0
02/02:40pm SSE 10 13 - - - - 10 Mostly clear Thunder 21.3 1008.4 0.0
02/02:33pm SSE 11 15 - - - - 10 Mostly clear Showers 21.1 1008.4 0.0
02/02:30pm SSE 10 15 - - - - 10 Mostly clear - 21.7 1008.3 0.0
02/02:04pm SSE 9 10 - - - - 10 Mostly clear Thunderstorm 21.9 1008.8 0.0
02/02:00pm SSE 9 11 - - - - 10 Partly cloudy - 22.2 1008.8 0.0
02/01:30pm SSE 10 13 - - - - 10 Partly cloudy - 22.7 1009.1 0.0
02/01:00pm SSE 11 14 - - - - 10 Mostly clear - 22.2 1009.6 0.0
02/12:30pm SSE 10 14 - - - - 10 Mostly clear - 21.9 1010.2 0.0
02/12:00pm SE 10 13 - - - - 15 Partly cloudy Haze 21.7 1010.6 0.0
02/11:30am SSE 9 13 - - - - 10 Mostly clear - 20.9 1011.2 0.0
02/11:00am S 9 11 - - - - 10 Mostly clear - 20.8 1011.6 0.0
02/10:30am S 6 8 - - - - 10 Mostly clear - 20.1 1012.1 0.0
02/10:00am SE 7 9 - - - - 10 Mostly clear - 19.7 1012.5 0.0
02/09:30am NE 4 6 - - - - 10 - - 19.0 1013.0 0.0
02/09:00am NNE 5 7 - - - - 12 Mostly clear Haze 17.7 1013.6 2.4
02/08:30am NNE 3 6 - - - - 10 Mostly clear - 17.2 1014.0 2.4
02/08:00am N 1 5 - - - - 10 Partly cloudy - 16.3 1013.9 2.4
02/07:30am NW 2 5 - - - - 10 Mostly cloudy - 15.8 1013.9 2.4
02/07:00am CALM 0 0 - - - - 10 Mostly cloudy - 15.0 1013.8 2.4
02/06:30am CALM 0 0 - - - - 10 Partly cloudy - 13.9 1014.0 2.4
02/06:00am CALM 0 0 - - - - 15 Partly cloudy Haze 13.4 1013.8 2.4
02/05:59am CALM 0 0 - - - - 10 Partly cloudy - 13.4 1013.8 2.4
02/05:30am CALM 0 0 - - - - 10 Partly cloudy - 13.3 1013.8 2.4
02/05:00am CALM 0 0 - - - - 10 Cloudy - 13.9 1013.8 2.4
02/04:30am SSW 1 3 - - - - 10 Cloudy - 14.3 1013.9 2.4
02/04:00am SSW 4 5 - - - - 10 Cloudy - 14.3 1014.0 2.4
02/03:30am SW 4 5 - - - - 10 Cloudy - 14.6 1014.1 2.4
02/03:00am SW 4 6 - - - - 10 Cloudy - 14.6 1014.3 2.4
02/02:30am SSW 6 7 - - - - 10 Cloudy - 14.7 1014.4 2.4
02/02:00am SSW 6 7 - - - - 10 Cloudy - 14.5 1014.5 2.4
02/01:30am SW 6 7 - - - - 10 Partly cloudy - 14.2 1014.7 2.4
02/01:17am SSW 6 7 - - - - 10 Partly cloudy - 14.1 1014.8 2.4
02/01:00am SSW 6 7 - - - - 10 Partly cloudy - 14.1 1014.8 2.4
02/12:30am SW 6 7 - - - - 10 Partly cloudy - 14.2 1015.1 2.4
02/12:00am SSW 5 6 - - - - 10 Partly cloudy - 14.5 1015.3 2.4
 
Date/Time
EDT
Wind Sea
Height
m
Swell Vis
km
Cloud Weather Temp
°C
Press
MSL
hPa
Rain since
9am
mm
Dir  Spd
kts
Gust
kts
Height
m
Period
s
Dir
01/11:52pm SSW 6 8 - - - - 10 Partly cloudy - 14.5 1015.4 2.4
01/11:30pm S 8 10 - - - - 10 Mostly clear - 14.9 1015.4 2.4
01/11:00pm S 10 14 - - - - 10 Mostly clear - 15.1 1015.4 2.4
01/10:30pm S 10 14 - - - - 10 Partly cloudy - 15.3 1015.5 2.4
01/10:00pm S 11 15 - - - - 10 Mostly clear - 15.4 1015.2 2.4
01/09:30pm S 11 15 - - - - 10 Mostly clear - 15.6 1015.0 2.4
01/09:00pm S 15 19 - - - - 10 Partly cloudy Haze 15.6 1014.6 2.4
01/08:30pm S 14 20 - - - - 10 Mostly clear - 16.1 1014.3 2.4
01/08:00pm S 16 22 - - - - 10 Mostly clear - 16.5 1014.0 2.4
01/07:30pm S 19 26 - - - - 10 Mostly clear - 17.3 1013.3 2.4
01/07:00pm S 17 24 - - - - 10 Mostly clear - 17.9 1012.8 2.4
01/06:30pm S 17 22 - - - - 10 Mostly clear - 18.7 1012.1 2.4
01/06:00pm S 17 22 - - - - 25 Partly cloudy Distant precip. 19.2 1011.7 2.4
01/05:30pm S 14 20 - - - - 10 Mostly clear - 20.1 1011.3 2.4
01/05:00pm S 12 16 - - - - 10 Mostly clear - 21.9 1010.9 2.4
01/04:30pm S 10 14 - - - - 10 Mostly clear - 22.5 1010.8 2.4
01/04:00pm SE 9 18 - - - - 10 Mostly clear - 23.1 1010.9 2.4
01/03:49pm ESE 9 20 - - - - 10 Mostly clear - 23.0 1010.7 2.4
01/03:30pm SE 5 7 - - - - 10 Mostly clear - 23.7 1011.0 2.4
01/03:11pm SW 11 16 - - - - 10 Partly cloudy Thunder 22.8 1010.8 2.4
01/03:00pm WNW 10 23 - - - - 5 Mostly cloudy Thunderstorm 20.7 1011.5 2.4
01/02:57pm WSW 9 23 - - - - 5 Mostly clear Thunderstorm 20.9 1011.3 1.8
01/02:52pm S 9 11 - - - - 10 Mostly clear Thunderstorm 23.0 1011.2 0.0
01/02:45pm SSE 9 10 - - - - 10 Mostly clear Thunderstorm 23.3 1010.5 0.0
01/02:44pm SSE 9 10 - - - - 10 Partly cloudy Thunderstorm 23.2 1010.5 0.0
01/02:30pm SSE 10 12 - - - - 10 Partly cloudy Thunder 24.6 1010.4 0.0
01/02:00pm SE 10 14 - - - - 10 Mostly clear - 26.2 1010.5 0.0
01/01:30pm SE 10 13 - - - - 10 Mostly clear - 26.5 1010.7 0.0
01/01:00pm NNE 6 11 - - - - 10 Mostly clear - 28.6 1010.8 0.0
01/12:30pm NNW 7 11 - - - - 10 Mostly clear - 27.7 1011.1 0.0
01/12:00pm NW 9 13 - - - - 30 Mostly cloudy Haze 26.6 1011.5 0.0
01/11:30am NW 9 11 - - - - 10 - - 24.9 1011.8 0.0
01/11:00am NW 11 14 - - - - 10 - - 24.3 1012.0 0.0
01/10:30am NW 10 15 - - - - 10 - - 23.1 1012.2 0.0
01/10:00am NNW 9 13 - - - - 10 - - 22.1 1012.4 0.0
01/09:30am NNW 11 16 - - - - 10 - - 21.3 1012.3 0.0
01/09:00am NNW 11 15 - - - - 22 Mostly cloudy Haze 20.4 1012.3 0.0
01/08:30am N 11 15 - - - - 10 - - 20.0 1012.3 0.0
01/08:00am NNW 10 16 - - - - 10 - - 18.3 1012.3 0.0
01/07:30am N 10 14 - - - - 10 - - 17.5 1012.3 0.0
01/07:00am N 11 15 - - - - 10 - - 16.3 1012.1 0.0
01/06:30am N 10 14 - - - - 10 - - 15.9 1012.0 0.0
01/06:00am N 12 16 - - - - 25 Mostly clear Haze 15.3 1011.8 0.0
01/05:00am NNW 11 15 - - - - 10 - - 15.5 1011.6 0.0
01/04:30am NNW 9 14 - - - - 10 - - 15.1 1011.6 0.0
01/04:00am NNW 10 14 - - - - 10 - - 15.2 1011.6 0.0
01/03:30am NNW 9 15 - - - - 10 - - 15.7 1011.5 0.0
01/03:00am NNW 7 11 - - - - 10 - - 15.4 1011.9 0.0
01/02:30am NNW 8 12 - - - - 10 - - 16.1 1012.0 0.0
01/02:00am N 6 9 - - - - 10 - - 16.2 1012.2 0.0
01/01:30am N 7 9 - - - - 10 - - 15.5 1012.1 0.0
01/01:00am N 6 9 - - - - 10 - - 16.4 1012.3 0.0
01/12:30am NNE 4 5 - - - - 10 - - 15.6 1012.4 0.0
01/12:00am NNE 6 7 - - - - 10 - - 16.1 1012.6 0.0
 
Date/Time
EDT
Wind Sea
Height
m
Swell Vis
km
Cloud Weather Temp
°C
Press
MSL
hPa
Rain since
9am
mm
Dir  Spd
kts
Gust
kts
Height
m
Period
s
Dir
30/11:30pm NNE 5 7 - - - - 10 Mostly clear - 15.9 1012.9 0.0
30/11:00pm NNE 6 8 - - - - 10 Mostly clear - 16.3 1013.1 0.0
30/10:30pm N 5 7 - - - - 10 Mostly clear - 16.7 1013.1 0.0
30/10:00pm NNE 8 13 - - - - 10 Mostly clear - 17.2 1013.2 0.0
30/09:30pm NE 11 16 - - - - 10 Mostly clear - 17.6 1012.9 0.0
30/09:00pm NE 10 14 - - - - 35 Mostly clear Haze 18.2 1012.6 0.0
30/08:30pm NE 10 14 - - - - 10 Mostly clear - 18.7 1012.6 0.0
30/08:00pm NE 11 15 - - - - 10 Mostly clear - 19.5 1012.5 0.0
30/07:30pm NE 12 15 - - - - 10 Mostly clear - 20.5 1012.2 0.0
30/07:00pm NE 13 17 - - - - 10 Mostly clear - 21.3 1012.2 0.0
30/06:30pm NE 14 17 - - - - 10 Mostly clear - 22.0 1012.1 0.0
30/06:00pm NE 13 18 - - - - 35 Mostly clear Haze 22.6 1012.0 0.0
30/05:30pm NE 12 16 - - - - 10 Mostly clear - 23.4 1012.1 0.0

Other formats

Comma delimited format used in spreadsheet applications
http://www.bom.gov.au/fwo/IDT60701/IDT60701.94975.axf

JavaScript Object Notation format (JSON) in row-major order
http://www.bom.gov.au/fwo/IDT60701/IDT60701.94975.json

Data quality

Most of these data are generated automatically and are frequently updated. Quality checks on data are not normally performed. It is possible for incorrect values to appear. Refer to information at About Latest Weather Observations and please check the disclaimer before using these data.